sensor_id;sensor_type;location;lat;lon;timestamp;pressure;altitude;pressure_sealevel;temperature;humidity
54236;BME280;40151;43.606;1.472;2023-04-29T00:02:12;99133.84;;;21.39;57.04
54236;BME280;40151;43.606;1.472;2023-04-29T00:04:38;99116.22;;;21.38;56.93
54236;BME280;40151;43.606;1.472;2023-04-29T00:07:03;99119.84;;;21.37;56.91
54236;BME280;40151;43.606;1.472;2023-04-29T00:09:28;99116.22;;;21.38;56.84
54236;BME280;40151;43.606;1.472;2023-04-29T00:11:54;99121.53;;;21.38;57.01
54236;BME280;40151;43.606;1.472;2023-04-29T00:14:19;99131.94;;;21.41;56.97
54236;BME280;40151;43.606;1.472;2023-04-29T00:16:45;99137.03;;;21.44;56.80
54236;BME280;40151;43.606;1.472;2023-04-29T00:19:11;99148.50;;;21.45;56.65
54236;BME280;40151;43.606;1.472;2023-04-29T00:21:37;99153.69;;;21.46;56.64
54236;BME280;40151;43.606;1.472;2023-04-29T00:24:02;99151.91;;;21.47;56.84
54236;BME280;40151;43.606;1.472;2023-04-29T00:26:28;99141.28;;;21.47;56.64
54236;BME280;40151;43.606;1.472;2023-04-29T00:28:53;99141.28;;;21.47;56.60
54236;BME280;40151;43.606;1.472;2023-04-29T00:31:18;99135.13;;;21.46;56.68
54236;BME280;40151;43.606;1.472;2023-04-29T00:33:44;99131.63;;;21.46;56.48
54236;BME280;40151;43.606;1.472;2023-04-29T00:36:10;99139.38;;;21.49;56.41
54236;BME280;40151;43.606;1.472;2023-04-29T00:38:35;99145.75;;;21.46;56.48
54236;BME280;40151;43.606;1.472;2023-04-29T00:41:01;99145.09;;;21.43;56.57
54236;BME280;40151;43.606;1.472;2023-04-29T00:43:27;99138.97;;;21.42;56.63
54236;BME280;40151;43.606;1.472;2023-04-29T00:45:52;99132.16;;;21.38;56.56
54236;BME280;40151;43.606;1.472;2023-04-29T00:48:18;99144.47;;;21.39;56.67
54236;BME280;40151;43.606;1.472;2023-04-29T00:50:43;99144.88;;;21.33;56.80
54236;BME280;40151;43.606;1.472;2023-04-29T00:53:10;99148.06;;;21.38;56.73
54236;BME280;40151;43.606;1.472;2023-04-29T00:55:40;99151.88;;;21.34;56.65
54236;BME280;40151;43.606;1.472;2023-04-29T00:58:06;99154.53;;;21.34;56.79
54236;BME280;40151;43.606;1.472;2023-04-29T01:00:34;99153.81;;;21.32;56.88
54236;BME280;40151;43.606;1.472;2023-04-29T01:03:00;99145.06;;;21.30;56.86
54236;BME280;40151;43.606;1.472;2023-04-29T01:05:25;99162.91;;;21.28;56.87
54236;BME280;40151;43.606;1.472;2023-04-29T01:10:28;99162.06;;;21.27;56.92
54236;BME280;40151;43.606;1.472;2023-04-29T01:12:58;99164.81;;;21.26;56.80
54236;BME280;40151;43.606;1.472;2023-04-29T01:15:29;99159.53;;;21.26;56.93
54236;BME280;40151;43.606;1.472;2023-04-29T01:18:05;99164.19;;;21.22;56.91
54236;BME280;40151;43.606;1.472;2023-04-29T01:20:35;99160.56;;;21.23;57.14
54236;BME280;40151;43.606;1.472;2023-04-29T01:23:02;99150.78;;;21.24;56.89
54236;BME280;40151;43.606;1.472;2023-04-29T01:25:28;99154.50;;;21.21;57.06
54236;BME280;40151;43.606;1.472;2023-04-29T01:33:50;99152.94;;;21.18;57.10
54236;BME280;40151;43.606;1.472;2023-04-29T01:36:59;99149.31;;;21.19;57.11
54236;BME280;40151;43.606;1.472;2023-04-29T01:42:22;99152.16;;;21.16;57.03
54236;BME280;40151;43.606;1.472;2023-04-29T01:44:50;99149.50;;;21.16;57.02
54236;BME280;40151;43.606;1.472;2023-04-29T01:47:17;99142.50;;;21.15;56.94
54236;BME280;40151;43.606;1.472;2023-04-29T01:49:43;99141.78;;;21.13;56.95
54236;BME280;40151;43.606;1.472;2023-04-29T01:52:11;99139.84;;;21.15;57.07
54236;BME280;40151;43.606;1.472;2023-04-29T01:54:37;99148.00;;;21.12;57.08
54236;BME280;40151;43.606;1.472;2023-04-29T01:57:03;99140.03;;;21.12;57.22
54236;BME280;40151;43.606;1.472;2023-04-29T01:59:28;99140.81;;;21.14;57.08
54236;BME280;40151;43.606;1.472;2023-04-29T02:01:54;99143.56;;;21.13;56.95
54236;BME280;40151;43.606;1.472;2023-04-29T02:04:21;99144.44;;;21.13;57.02
54236;BME280;40151;43.606;1.472;2023-04-29T02:06:46;99148.00;;;21.12;56.93
54236;BME280;40151;43.606;1.472;2023-04-29T02:09:11;99148.00;;;21.12;57.03
54236;BME280;40151;43.606;1.472;2023-04-29T02:11:37;99157.78;;;21.12;57.06
54236;BME280;40151;43.606;1.472;2023-04-29T02:14:02;99155.22;;;21.10;57.16
54236;BME280;40151;43.606;1.472;2023-04-29T02:16:28;99156.09;;;21.11;56.94
54236;BME280;40151;43.606;1.472;2023-04-29T02:18:54;99158.75;;;21.11;56.99
54236;BME280;40151;43.606;1.472;2023-04-29T02:21:19;99150.78;;;21.11;57.07
54236;BME280;40151;43.606;1.472;2023-04-29T02:23:44;99160.53;;;21.10;57.13
54236;BME280;40151;43.606;1.472;2023-04-29T02:26:10;99169.44;;;21.09;57.09
54236;BME280;40151;43.606;1.472;2023-04-29T02:28:36;99162.22;;;21.11;57.02
54236;BME280;40151;43.606;1.472;2023-04-29T02:31:01;99162.22;;;21.11;57.16
54236;BME280;40151;43.606;1.472;2023-04-29T02:33:27;99157.88;;;21.10;57.01
54236;BME280;40151;43.606;1.472;2023-04-29T02:35:52;99158.63;;;21.12;57.04
54236;BME280;40151;43.606;1.472;2023-04-29T02:38:17;99161.28;;;21.12;56.86
54236;BME280;40151;43.606;1.472;2023-04-29T02:40:44;99164.16;;;21.09;57.01
54236;BME280;40151;43.606;1.472;2023-04-29T02:43:10;99152.66;;;21.09;57.05
54236;BME280;40151;43.606;1.472;2023-04-29T02:45:36;99158.84;;;21.09;56.99
54236;BME280;40151;43.606;1.472;2023-04-29T02:48:03;99152.56;;;21.10;57.01
54236;BME280;40151;43.606;1.472;2023-04-29T02:50:28;99156.28;;;21.08;57.00
54236;BME280;40151;43.606;1.472;2023-04-29T02:52:54;99151.94;;;21.06;57.13
54236;BME280;40151;43.606;1.472;2023-04-29T02:55:19;99159.78;;;21.08;57.13
54236;BME280;40151;43.606;1.472;2023-04-29T02:57:45;99161.59;;;21.08;57.06
54236;BME280;40151;43.606;1.472;2023-04-29T03:00:11;99163.28;;;21.09;57.06
54236;BME280;40151;43.606;1.472;2023-04-29T03:02:36;99163.50;;;21.05;57.06
54236;BME280;40151;43.606;1.472;2023-04-29T03:05:02;99152.78;;;21.07;57.16
54236;BME280;40151;43.606;1.472;2023-04-29T03:07:28;99161.69;;;21.06;57.14
54236;BME280;40151;43.606;1.472;2023-04-29T03:09:54;99155.53;;;21.05;56.97
54236;BME280;40151;43.606;1.472;2023-04-29T03:12:20;99162.63;;;21.05;57.05
54236;BME280;40151;43.606;1.472;2023-04-29T03:14:45;99155.63;;;21.04;57.08
54236;BME280;40151;43.606;1.472;2023-04-29T03:17:11;99158.19;;;21.05;57.02
54236;BME280;40151;43.606;1.472;2023-04-29T03:19:37;99153.84;;;21.04;57.11
54236;BME280;40151;43.606;1.472;2023-04-29T03:22:02;99153.94;;;21.03;57.13
54236;BME280;40151;43.606;1.472;2023-04-29T03:24:28;99150.34;;;21.04;56.89
54236;BME280;40151;43.606;1.472;2023-04-29T03:26:53;99159.25;;;21.03;56.92
54236;BME280;40151;43.606;1.472;2023-04-29T03:29:19;99148.81;;;21.00;57.19
54236;BME280;40151;43.606;1.472;2023-04-29T03:31:45;99149.69;;;21.00;57.04
54236;BME280;40151;43.606;1.472;2023-04-29T03:34:10;99152.44;;;20.99;57.16
54236;BME280;40151;43.606;1.472;2023-04-29T03:36:36;99157.75;;;20.99;57.14
54236;BME280;40151;43.606;1.472;2023-04-29T03:39:01;99157.75;;;20.99;57.08
54236;BME280;40151;43.606;1.472;2023-04-29T03:41:27;99160.38;;;20.99;57.13
54236;BME280;40151;43.606;1.472;2023-04-29T03:43:52;99161.34;;;20.98;57.13
54236;BME280;40151;43.606;1.472;2023-04-29T03:46:19;99165.50;;;21.02;57.02
54236;BME280;40151;43.606;1.472;2023-04-29T03:48:44;99161.81;;;21.04;56.94
54236;BME280;40151;43.606;1.472;2023-04-29T03:51:09;99159.03;;;21.06;56.83
54236;BME280;40151;43.606;1.472;2023-04-29T03:53:35;99166.06;;;21.07;56.87
54236;BME280;40151;43.606;1.472;2023-04-29T03:56:01;99171.38;;;21.07;56.76
54236;BME280;40151;43.606;1.472;2023-04-29T03:58:26;99165.28;;;21.05;56.97
54236;BME280;40151;43.606;1.472;2023-04-29T04:00:52;99168.81;;;21.05;56.84
54236;BME280;40151;43.606;1.472;2023-04-29T04:03:17;99169.84;;;21.03;56.99
54236;BME280;40151;43.606;1.472;2023-04-29T04:05:43;99171.78;;;21.01;56.84
54236;BME280;40151;43.606;1.472;2023-04-29T04:08:08;99180.47;;;21.03;56.68
54236;BME280;40151;43.606;1.472;2023-04-29T04:10:34;99181.53;;;21.00;56.97
54236;BME280;40151;43.606;1.472;2023-04-29T04:13:00;99185.97;;;21.00;56.98
54236;BME280;40151;43.606;1.472;2023-04-29T04:15:25;99184.06;;;21.02;56.94
54236;BME280;40151;43.606;1.472;2023-04-29T04:17:50;99174.41;;;21.01;56.92
54236;BME280;40151;43.606;1.472;2023-04-29T04:20:16;99170.25;;;20.97;57.02
54236;BME280;40151;43.606;1.472;2023-04-29T04:22:41;99177.25;;;20.98;56.78
54236;BME280;40151;43.606;1.472;2023-04-29T04:25:07;99175.34;;;21.00;56.93
54236;BME280;40151;43.606;1.472;2023-04-29T04:27:33;99174.50;;;20.99;56.89
54236;BME280;40151;43.606;1.472;2023-04-29T04:29:58;99177.34;;;20.96;56.83
54236;BME280;40151;43.606;1.472;2023-04-29T04:32:23;99186.28;;;20.95;57.05
54236;BME280;40151;43.606;1.472;2023-04-29T04:34:49;99192.44;;;20.96;57.00
54236;BME280;40151;43.606;1.472;2023-04-29T04:37:15;99191.56;;;20.95;57.17
54236;BME280;40151;43.606;1.472;2023-04-29T04:39:40;99195.19;;;20.94;57.03
54236;BME280;40151;43.606;1.472;2023-04-29T04:42:06;99203.97;;;20.95;56.98
54236;BME280;40151;43.606;1.472;2023-04-29T04:44:31;99203.78;;;20.98;57.01
54236;BME280;40151;43.606;1.472;2023-04-29T04:46:58;99201.13;;;20.98;56.98
54236;BME280;40151;43.606;1.472;2023-04-29T04:49:25;99200.28;;;20.97;56.96
54236;BME280;40151;43.606;1.472;2023-04-29T04:51:51;99196.78;;;20.97;56.81
54236;BME280;40151;43.606;1.472;2023-04-29T04:54:17;99207.41;;;20.97;56.94
54236;BME280;40151;43.606;1.472;2023-04-29T04:56:42;99208.44;;;20.94;56.97
54236;BME280;40151;43.606;1.472;2023-04-29T04:59:08;99211.00;;;20.96;56.97
54236;BME280;40151;43.606;1.472;2023-04-29T05:01:33;99217.13;;;20.96;56.87
54236;BME280;40151;43.606;1.472;2023-04-29T05:03:59;99212.88;;;20.93;57.04
54236;BME280;40151;43.606;1.472;2023-04-29T05:06:25;99226.28;;;20.92;57.18
54236;BME280;40151;43.606;1.472;2023-04-29T05:08:50;99229.66;;;20.94;56.96
54236;BME280;40151;43.606;1.472;2023-04-29T05:11:20;99235.81;;;20.95;56.89
54236;BME280;40151;43.606;1.472;2023-04-29T05:13:46;99242.06;;;20.93;56.90
54236;BME280;40151;43.606;1.472;2023-04-29T05:16:12;99240.19;;;20.96;56.92
54236;BME280;40151;43.606;1.472;2023-04-29T05:18:37;99241.09;;;20.95;56.89
54236;BME280;40151;43.606;1.472;2023-04-29T05:21:03;99248.22;;;20.94;57.01
54236;BME280;40151;43.606;1.472;2023-04-29T05:23:28;99246.41;;;20.95;56.88
54236;BME280;40151;43.606;1.472;2023-04-29T05:25:54;99250.88;;;20.94;56.98
54236;BME280;40151;43.606;1.472;2023-04-29T05:28:20;99250.22;;;20.90;57.06
54236;BME280;40151;43.606;1.472;2023-04-29T05:30:45;99261.41;;;20.96;56.95
54236;BME280;40151;43.606;1.472;2023-04-29T05:33:11;99254.50;;;20.93;56.97
54236;BME280;40151;43.606;1.472;2023-04-29T05:35:37;99258.94;;;20.92;56.86
54236;BME280;40151;43.606;1.472;2023-04-29T05:38:03;99266.97;;;20.91;56.98
54236;BME280;40151;43.606;1.472;2023-04-29T05:40:28;99260.94;;;20.89;56.91
54236;BME280;40151;43.606;1.472;2023-04-29T05:42:53;99266.97;;;20.91;57.06
54236;BME280;40151;43.606;1.472;2023-04-29T05:45:19;99254.75;;;20.88;56.86
54236;BME280;40151;43.606;1.472;2023-04-29T05:47:45;99261.97;;;20.86;56.95
54236;BME280;40151;43.606;1.472;2023-04-29T05:50:10;99261.66;;;20.91;56.99
54236;BME280;40151;43.606;1.472;2023-04-29T05:52:36;99251.94;;;20.91;56.84
54236;BME280;40151;43.606;1.472;2023-04-29T05:55:01;99252.09;;;20.88;56.87
54236;BME280;40151;43.606;1.472;2023-04-29T05:57:27;99245.00;;;20.89;56.91
54236;BME280;40151;43.606;1.472;2023-04-29T05:59:52;99241.31;;;20.91;57.14
54236;BME280;40151;43.606;1.472;2023-04-29T06:02:19;99236.19;;;20.88;56.88
54236;BME280;40151;43.606;1.472;2023-04-29T06:04:51;99233.53;;;20.88;57.16
54236;BME280;40151;43.606;1.472;2023-04-29T06:07:16;99230.06;;;20.88;56.82
54236;BME280;40151;43.606;1.472;2023-04-29T06:09:42;99221.34;;;20.86;57.26
54236;BME280;40151;43.606;1.472;2023-04-29T06:12:08;99237.25;;;20.86;57.15
54236;BME280;40151;43.606;1.472;2023-04-29T06:14:33;99234.50;;;20.87;57.21
54236;BME280;40151;43.606;1.472;2023-04-29T06:16:59;99233.66;;;20.87;57.02
54236;BME280;40151;43.606;1.472;2023-04-29T06:19:24;99235.38;;;20.88;57.11
54236;BME280;40151;43.606;1.472;2023-04-29T06:21:50;99242.47;;;20.87;57.23
54236;BME280;40151;43.606;1.472;2023-04-29T06:24:15;99239.81;;;20.87;57.08
54236;BME280;40151;43.606;1.472;2023-04-29T06:26:41;99250.41;;;20.87;57.08
54236;BME280;40151;43.606;1.472;2023-04-29T06:29:06;99255.72;;;20.87;57.16
54236;BME280;40151;43.606;1.472;2023-04-29T06:31:32;99281.19;;;20.90;56.96
54236;BME280;40151;43.606;1.472;2023-04-29T06:33:57;99278.75;;;20.87;57.00
54236;BME280;40151;43.606;1.472;2023-04-29T06:36:23;99283.94;;;20.88;57.16
54236;BME280;40151;43.606;1.472;2023-04-29T06:38:49;99287.44;;;20.89;57.29
54236;BME280;40151;43.606;1.472;2023-04-29T06:41:14;99287.53;;;20.87;57.22
54236;BME280;40151;43.606;1.472;2023-04-29T06:43:39;99294.66;;;20.87;57.09
54236;BME280;40151;43.606;1.472;2023-04-29T06:46:07;99292.84;;;20.87;56.82
54236;BME280;40151;43.606;1.472;2023-04-29T06:48:32;99289.25;;;20.88;56.97
54236;BME280;40151;43.606;1.472;2023-04-29T06:50:58;99293.03;;;20.84;57.22
54236;BME280;40151;43.606;1.472;2023-04-29T06:53:24;99288.50;;;20.86;56.93
54236;BME280;40151;43.606;1.472;2023-04-29T06:55:49;99297.31;;;20.87;57.01
54236;BME280;40151;43.606;1.472;2023-04-29T06:58:16;99294.75;;;20.85;57.13
54236;BME280;40151;43.606;1.472;2023-04-29T07:00:49;99292.25;;;20.82;57.10
54236;BME280;40151;43.606;1.472;2023-04-29T07:03:16;99294.75;;;20.85;57.19
54236;BME280;40151;43.606;1.472;2023-04-29T07:05:42;99294.75;;;20.85;57.01
54236;BME280;40151;43.606;1.472;2023-04-29T07:08:10;99302.63;;;20.87;57.20
54236;BME280;40151;43.606;1.472;2023-04-29T07:10:36;99306.97;;;20.88;56.89
54236;BME280;40151;43.606;1.472;2023-04-29T07:13:02;99323.06;;;20.85;57.08
54236;BME280;40151;43.606;1.472;2023-04-29T07:15:28;99330.16;;;20.84;57.03
54236;BME280;40151;43.606;1.472;2023-04-29T07:17:54;99316.13;;;20.82;57.28
54236;BME280;40151;43.606;1.472;2023-04-29T07:20:20;99302.13;;;20.80;57.27
54236;BME280;40151;43.606;1.472;2023-04-29T07:22:46;99291.50;;;20.80;57.15
54236;BME280;40151;43.606;1.472;2023-04-29T07:25:12;99291.31;;;20.83;57.23
54236;BME280;40151;43.606;1.472;2023-04-29T07:27:38;99306.56;;;20.79;57.16
54236;BME280;40151;43.606;1.472;2023-04-29T07:30:04;99326.94;;;20.79;57.12
54236;BME280;40151;43.606;1.472;2023-04-29T07:32:30;99328.81;;;20.77;57.21
54236;BME280;40151;43.606;1.472;2023-04-29T07:34:57;99325.22;;;20.78;57.17
54236;BME280;40151;43.606;1.472;2023-04-29T07:37:22;99312.91;;;20.77;57.10
54236;BME280;40151;43.606;1.472;2023-04-29T07:39:48;99314.81;;;20.75;57.36
54236;BME280;40151;43.606;1.472;2023-04-29T07:42:13;99307.59;;;20.77;57.07
54236;BME280;40151;43.606;1.472;2023-04-29T07:44:40;99314.63;;;20.78;57.04
54236;BME280;40151;43.606;1.472;2023-04-29T07:47:05;99313.75;;;20.77;57.23
54236;BME280;40151;43.606;1.472;2023-04-29T07:49:31;99311.03;;;20.79;57.14
54236;BME280;40151;43.606;1.472;2023-04-29T07:51:56;99314.63;;;20.78;56.98
54236;BME280;40151;43.606;1.472;2023-04-29T07:54:21;99311.19;;;20.76;57.29
54236;BME280;40151;43.606;1.472;2023-04-29T07:56:48;99326.28;;;20.75;57.05
54236;BME280;40151;43.606;1.472;2023-04-29T07:59:13;99325.41;;;20.75;57.24
54236;BME280;40151;43.606;1.472;2023-04-29T08:01:40;99332.41;;;20.76;57.19
54236;BME280;40151;43.606;1.472;2023-04-29T08:04:05;99340.38;;;20.76;57.24
54236;BME280;40151;43.606;1.472;2023-04-29T08:06:32;99339.63;;;20.74;57.33
54236;BME280;40151;43.606;1.472;2023-04-29T08:08:57;99345.66;;;20.76;57.12
54236;BME280;40151;43.606;1.472;2023-04-29T08:11:23;99348.31;;;20.76;57.15
54236;BME280;40151;43.606;1.472;2023-04-29T08:13:48;99351.75;;;20.78;57.22
54236;BME280;40151;43.606;1.472;2023-04-29T08:16:14;99345.50;;;20.79;57.17
54236;BME280;40151;43.606;1.472;2023-04-29T08:18:39;99340.28;;;20.77;57.28
54236;BME280;40151;43.606;1.472;2023-04-29T08:21:05;99332.22;;;20.79;57.26
54236;BME280;40151;43.606;1.472;2023-04-29T08:23:31;99326.28;;;20.75;57.27
54236;BME280;40151;43.606;1.472;2023-04-29T08:25:57;99326.94;;;20.79;57.28
54236;BME280;40151;43.606;1.472;2023-04-29T08:28:22;99327.75;;;20.79;57.07
54236;BME280;40151;43.606;1.472;2023-04-29T08:30:48;99333.28;;;20.76;57.10
54236;BME280;40151;43.606;1.472;2023-04-29T08:33:13;99346.63;;;20.75;57.19
54236;BME280;40151;43.606;1.472;2023-04-29T08:35:40;99334.31;;;20.74;57.35
54236;BME280;40151;43.606;1.472;2023-04-29T08:38:07;99323.50;;;20.77;57.24
54236;BME280;40151;43.606;1.472;2023-04-29T08:40:42;99318.19;;;20.77;57.03
54236;BME280;40151;43.606;1.472;2023-04-29T08:43:09;99325.22;;;20.78;57.13
54236;BME280;40151;43.606;1.472;2023-04-29T08:45:35;99329.59;;;20.79;57.14
54236;BME280;40151;43.606;1.472;2023-04-29T08:48:02;99329.66;;;20.77;57.21
54236;BME280;40151;43.606;1.472;2023-04-29T08:50:29;99330.72;;;20.75;57.13
54236;BME280;40151;43.606;1.472;2023-04-29T08:52:54;99339.41;;;20.77;57.11
54236;BME280;40151;43.606;1.472;2023-04-29T08:55:20;99334.09;;;20.77;57.23
54236;BME280;40151;43.606;1.472;2023-04-29T08:57:48;99329.00;;;20.74;57.23
54236;BME280;40151;43.606;1.472;2023-04-29T09:00:14;99329.00;;;20.74;57.23
54236;BME280;40151;43.606;1.472;2023-04-29T09:02:48;99332.41;;;20.76;57.09
54236;BME280;40151;43.606;1.472;2023-04-29T09:05:15;99334.09;;;20.77;57.25
54236;BME280;40151;43.606;1.472;2023-04-29T09:07:41;99330.53;;;20.78;57.00
54236;BME280;40151;43.606;1.472;2023-04-29T09:10:07;99336.50;;;20.82;57.11
54236;BME280;40151;43.606;1.472;2023-04-29T09:12:32;99335.84;;;20.78;57.25
54236;BME280;40151;43.606;1.472;2023-04-29T09:14:58;99341.13;;;20.78;56.97
54236;BME280;40151;43.606;1.472;2023-04-29T09:17:43;99330.31;;;20.81;57.06
54236;BME280;40151;43.606;1.472;2023-04-29T09:23:05;99340.94;;;20.81;57.13
54236;BME280;40151;43.606;1.472;2023-04-29T09:25:30;99345.19;;;20.84;56.83
54236;BME280;40151;43.606;1.472;2023-04-29T09:27:56;99345.88;;;20.87;56.76
54236;BME280;40151;43.606;1.472;2023-04-29T09:30:22;99348.72;;;20.84;57.06
54236;BME280;40151;43.606;1.472;2023-04-29T09:33:06;99340.66;;;20.86;56.79
54236;BME280;40151;43.606;1.472;2023-04-29T09:35:32;99347.59;;;20.88;57.00
54236;BME280;40151;43.606;1.472;2023-04-29T09:38:08;99340.59;;;20.87;56.74
54236;BME280;40151;43.606;1.472;2023-04-29T09:40:34;99337.19;;;20.85;56.86
54236;BME280;40151;43.606;1.472;2023-04-29T09:43:00;99341.63;;;20.85;56.91
54236;BME280;40151;43.606;1.472;2023-04-29T09:45:36;99346.84;;;20.86;56.94
54236;BME280;40151;43.606;1.472;2023-04-29T09:48:06;99342.41;;;20.87;56.76
54236;BME280;40151;43.606;1.472;2023-04-29T09:50:34;99353.75;;;20.89;56.74
54236;BME280;40151;43.606;1.472;2023-04-29T09:53:03;99361.63;;;20.90;56.70
54236;BME280;40151;43.606;1.472;2023-04-29T09:55:30;99364.38;;;20.89;56.88
54236;BME280;40151;43.606;1.472;2023-04-29T09:57:56;99368.63;;;20.91;56.76
54236;BME280;40151;43.606;1.472;2023-04-29T10:00:23;99374.69;;;20.93;56.81
54236;BME280;40151;43.606;1.472;2023-04-29T10:02:50;99370.31;;;20.92;56.80
54236;BME280;40151;43.606;1.472;2023-04-29T10:05:18;99365.88;;;20.93;56.85
54236;BME280;40151;43.606;1.472;2023-04-29T10:07:46;99360.59;;;20.93;56.80
54236;BME280;40151;43.606;1.472;2023-04-29T10:10:15;99359.41;;;20.97;56.79
54236;BME280;40151;43.606;1.472;2023-04-29T10:12:41;99361.25;;;20.97;56.74
54236;BME280;40151;43.606;1.472;2023-04-29T10:17:48;99363.88;;;20.97;56.66
54236;BME280;40151;43.606;1.472;2023-04-29T10:20:24;99363.97;;;20.95;56.68
54236;BME280;40151;43.606;1.472;2023-04-29T10:22:53;99352.50;;;20.95;56.74
54236;BME280;40151;43.606;1.472;2023-04-29T10:25:22;99366.53;;;20.97;56.62
54236;BME280;40151;43.606;1.472;2023-04-29T10:27:49;99369.94;;;20.99;56.62
54236;BME280;40151;43.606;1.472;2023-04-29T10:30:18;99376.94;;;21.00;56.54
54236;BME280;40151;43.606;1.472;2023-04-29T10:32:45;99369.94;;;20.99;56.51
54236;BME280;40151;43.606;1.472;2023-04-29T10:35:12;99370.72;;;21.01;56.49
54236;BME280;40151;43.606;1.472;2023-04-29T10:37:43;99361.91;;;21.00;56.53
54236;BME280;40151;43.606;1.472;2023-04-29T10:40:11;99375.06;;;21.02;56.53
54236;BME280;40151;43.606;1.472;2023-04-29T10:42:48;99367.09;;;21.02;56.47
54236;BME280;40151;43.606;1.472;2023-04-29T10:45:20;99364.47;;;21.02;56.57
54236;BME280;40151;43.606;1.472;2023-04-29T10:50:34;99360.84;;;21.03;56.68
54236;BME280;40151;43.606;1.472;2023-04-29T10:53:03;99368.06;;;21.01;56.57
54236;BME280;40151;43.606;1.472;2023-04-29T10:55:29;99370.50;;;21.04;56.47
54236;BME280;40151;43.606;1.472;2023-04-29T10:57:55;99366.16;;;21.03;56.61
54236;BME280;40151;43.606;1.472;2023-04-29T11:00:32;99373.16;;;21.04;56.48
54236;BME280;40151;43.606;1.472;2023-04-29T11:03:00;99371.47;;;21.03;56.56
54236;BME280;40151;43.606;1.472;2023-04-29T11:05:31;99367.84;;;21.04;56.65
54236;BME280;40151;43.606;1.472;2023-04-29T11:08:12;99367.84;;;21.04;56.49
54236;BME280;40151;43.606;1.472;2023-04-29T11:10:41;99364.34;;;21.03;56.52
54236;BME280;40151;43.606;1.472;2023-04-29T11:13:28;99360.75;;;21.04;56.70
54236;BME280;40151;43.606;1.472;2023-04-29T11:16:08;99363.41;;;21.04;56.55
54236;BME280;40151;43.606;1.472;2023-04-29T11:21:18;99358.94;;;21.05;56.71
54236;BME280;40151;43.606;1.472;2023-04-29T11:23:43;99364.25;;;21.05;56.66
54236;BME280;40151;43.606;1.472;2023-04-29T11:26:09;99357.06;;;21.07;56.56
54236;BME280;40151;43.606;1.472;2023-04-29T11:28:35;99346.44;;;21.07;56.67
54236;BME280;40151;43.606;1.472;2023-04-29T11:31:00;99342.84;;;21.08;56.50
54236;BME280;40151;43.606;1.472;2023-04-29T11:33:30;99341.97;;;21.08;56.53
54236;BME280;40151;43.606;1.472;2023-04-29T11:35:56;99337.53;;;21.08;56.81
54236;BME280;40151;43.606;1.472;2023-04-29T11:38:29;99326.94;;;21.08;56.66
54236;BME280;40151;43.606;1.472;2023-04-29T11:40:56;99335.63;;;21.10;56.66
54236;BME280;40151;43.606;1.472;2023-04-29T11:43:23;99323.31;;;21.09;56.78
54236;BME280;40151;43.606;1.472;2023-04-29T11:45:49;99323.31;;;21.09;56.81
54236;BME280;40151;43.606;1.472;2023-04-29T11:50:46;99314.41;;;21.10;56.77
54236;BME280;40151;43.606;1.472;2023-04-29T11:53:13;99318.00;;;21.09;56.67
54236;BME280;40151;43.606;1.472;2023-04-29T11:55:41;99318.00;;;21.09;56.65
54236;BME280;40151;43.606;1.472;2023-04-29T11:58:07;99315.28;;;21.11;56.65
54236;BME280;40151;43.606;1.472;2023-04-29T12:00:33;99325.88;;;21.11;56.59
54236;BME280;40151;43.606;1.472;2023-04-29T12:02:59;99356.84;;;21.10;56.74
54236;BME280;40151;43.606;1.472;2023-04-29T12:05:25;99340.94;;;21.10;56.63
54236;BME280;40151;43.606;1.472;2023-04-29T12:07:50;99332.03;;;21.11;56.66
54236;BME280;40151;43.606;1.472;2023-04-29T12:10:16;99316.88;;;21.13;56.71
54236;BME280;40151;43.606;1.472;2023-04-29T12:12:42;99314.22;;;21.13;56.62
54236;BME280;40151;43.606;1.472;2023-04-29T12:15:11;99333.53;;;21.15;56.64
54236;BME280;40151;43.606;1.472;2023-04-29T12:17:38;99321.22;;;21.14;56.80
54236;BME280;40151;43.606;1.472;2023-04-29T12:20:04;99310.63;;;21.14;56.71
54236;BME280;40151;43.606;1.472;2023-04-29T12:22:33;99333.53;;;21.15;56.50
54236;BME280;40151;43.606;1.472;2023-04-29T12:24:59;99337.88;;;21.16;56.71
54236;BME280;40151;43.606;1.472;2023-04-29T12:27:26;99339.72;;;21.16;56.55
54236;BME280;40151;43.606;1.472;2023-04-29T12:29:52;99337.88;;;21.16;56.46
54236;BME280;40151;43.606;1.472;2023-04-29T12:32:21;99345.84;;;21.16;56.24
54236;BME280;40151;43.606;1.472;2023-04-29T12:34:49;99347.56;;;21.17;56.44
54236;BME280;40151;43.606;1.472;2023-04-29T12:37:15;99347.56;;;21.17;56.59
54236;BME280;40151;43.606;1.472;2023-04-29T12:39:41;99343.97;;;21.18;56.51
54236;BME280;40151;43.606;1.472;2023-04-29T12:42:14;99343.97;;;21.18;56.77
54236;BME280;40151;43.606;1.472;2023-04-29T12:44:44;99349.28;;;21.18;56.68
54236;BME280;40151;43.606;1.472;2023-04-29T12:47:10;99343.97;;;21.18;56.47
54236;BME280;40151;43.606;1.472;2023-04-29T12:49:36;99337.72;;;21.19;56.63
54236;BME280;40151;43.606;1.472;2023-04-29T12:52:02;99335.06;;;21.19;56.42
54236;BME280;40151;43.606;1.472;2023-04-29T12:54:29;99336.75;;;21.21;56.64
54236;BME280;40151;43.606;1.472;2023-04-29T12:56:54;99332.41;;;21.19;56.59
54236;BME280;40151;43.606;1.472;2023-04-29T12:59:20;99341.19;;;21.20;56.65
54236;BME280;40151;43.606;1.472;2023-04-29T13:01:46;99339.41;;;21.21;56.67
54236;BME280;40151;43.606;1.472;2023-04-29T13:04:11;99336.75;;;21.21;56.63
54236;BME280;40151;43.606;1.472;2023-04-29T13:06:37;99331.44;;;21.21;56.76
54236;BME280;40151;43.606;1.472;2023-04-29T13:09:09;99329.75;;;21.19;56.72
54236;BME280;40151;43.606;1.472;2023-04-29T13:11:38;99328.78;;;21.21;56.72
54236;BME280;40151;43.606;1.472;2023-04-29T13:14:04;99326.06;;;21.22;56.74
54236;BME280;40151;43.606;1.472;2023-04-29T13:16:31;99320.84;;;21.21;56.58
54236;BME280;40151;43.606;1.472;2023-04-29T13:18:58;99321.66;;;21.21;56.79
54236;BME280;40151;43.606;1.472;2023-04-29T13:21:23;99323.41;;;21.22;56.64
54236;BME280;40151;43.606;1.472;2023-04-29T13:23:49;99321.56;;;21.23;56.65